• Join FlightAware (Why Join?)
  • Login
  • US Flag 
07:42AM EST


 

Airport Tracker/Info


-or-


 

Live Flight TrackerFlight Track Log ✈ N529LB ✈ 08-Jun-2013 ✈ KSMQ - KIAD

Flight Track Log - Related Links

Times and Time Zones

All times are in EDT time to prevent confusion due to time zone crossing. See the N529LB flight status page for this flight to view local times or setup timezone preferences in your user account.

Time Position Orientation Groundspeed Altitude Reporting Facility
EDT Latitude Longitude Course Direction KTS MPH feet Rate Location/Type
08:26AM 40.5833 -74.7333 270° West 141 162 2,100  Level New York TRACON
08:27AM 40.5667 -74.7667 237° Southwest 121 139 2,800 660 Climbing New York TRACON
08:29AM 40.5667 -74.8695 270° West  Level FlightAware Approximate
08:31AM 40.5500 -74.9745 270° West  Level FlightAware Approximate
08:33AM 40.5578 -75.0242 273° West 117 135 7,300  Level New York Center
08:34AM 40.5544 -75.0650 264° West 117 135 8,000 300 Climbing New York Center
08:35AM 40.5461 -75.1161 258° West 142 163 8,000 300 Level New York Center
08:36AM 40.5440 -75.2577 281° West  Level FlightAware Approximate
08:36AM 40.5403 -75.1650 261° West 142 163 8,700  Level New York Center
08:37AM 40.5506 -75.3135 273° West  Level FlightAware Approximate
08:37AM 40.5344 -75.2056 259° West 137 158 9,000  Level New York Center
08:38AM 40.5242 -75.2622 257° West 145 167 9,000  Level New York Center
08:39AM 40.5158 -75.3164 259° West 150 173 9,000 300 Level New York Center
08:40AM 40.5136 -75.3681 267° West 155 178 9,700 480 Climbing New York Center
08:41AM 40.5158 -75.4175 273° West 142 163 10,000 120 Climbing New York Center
08:42AM 40.5139 -75.4692 267° West 142 163 10,000  Level New York Center
08:43AM 40.5136 -75.5264 270° West 142 163 10,000  Level New York Center
08:44AM 40.5033 -75.5747 254° West 147 169 10,000  Level New York Center
08:45AM 40.4786 -75.6194 234° Southwest 149 171 10,000  Level New York Center
08:46AM 40.4558 -75.6642 236° Southwest 159 183 10,000  Level New York Center
08:47AM 40.4333 -75.7064 235° Southwest 159 183 10,000  Level New York Center
08:48AM 40.4064 -75.7561 235° Southwest 159 183 10,000  Level New York Center
08:49AM 40.3836 -75.7981 235° Southwest 159 183 10,000  Level New York Center
08:50AM 40.3608 -75.8428 236° Southwest 164 189 10,000  Level New York Center
08:51AM 40.3403 -75.8850 237° Southwest 164 189 10,000  Level New York Center
08:52AM 40.3131 -75.9372 236° Southwest 164 189 10,100  Climbing New York Center
08:53AM 40.2881 -75.9817 234° Southwest 164 189 10,100  Level New York Center
08:54AM 40.2653 -76.0289 238° Southwest 164 189 10,100  Level New York Center
08:55AM 40.2383 -76.0731 231° Southwest 164 189 10,100  Level New York Center
08:56AM 40.2153 -76.1203 237° Southwest 164 189 10,100  Level New York Center
08:57AM 40.1903 -76.1647 234° Southwest 164 189 10,100 -60 Level New York Center
08:58AM 40.1631 -76.2114 233° Southwest 164 189 10,000 -60 Descending New York Center
08:59AM 40.1381 -76.2556 233° Southwest 164 189 10,000  Level New York Center
09:00AM 40.1175 -76.2947 236° Southwest 164 189 10,000  Level New York Center
09:01AM 40.0967 -76.3419 240° Southwest 164 189 10,000  Level New York Center
09:02AM 40.0733 -76.3942 240° Southwest 164 189 10,000  Level New York Center
09:03AM 40.0503 -76.4414 237° Southwest 164 189 10,000  Level New York Center
09:04AM 40.0289 -76.4911 241° Southwest 158 182 10,000  Level New York Center
09:05AM 40.0083 -76.5328 237° Southwest 158 182 10,000  Level New York Center
09:07AM 39.9667 -76.6167 237° Southwest 152 175 10,000  Level Potomac TRACON
09:08AM 39.9500 -76.6500 237° Southwest 152 175 10,000  Level Potomac TRACON
09:09AM 39.9333 -76.7000 247° West 149 171 10,000  Level Potomac TRACON
09:09AM 39.9167 -76.7333 237° Southwest 150 173 10,000  Level Potomac TRACON
09:10AM 39.8833 -76.7833 229° Southwest 150 173 10,000  Level Potomac TRACON
09:11AM 39.8667 -76.8333 247° West 149 171 10,000  Level Potomac TRACON
09:12AM 39.8500 -76.8833 247° West 151 174 10,000 -60 Level Potomac TRACON
09:13AM 39.8333 -76.9167 237° Southwest 150 173 9,900 -300 Descending Potomac TRACON
09:14AM 39.8000 -76.9667 229° Southwest 158 182 9,400 -480 Descending Potomac TRACON
09:15AM 39.7833 -77.0167 247° West 166 191 9,000 -420 Descending Potomac TRACON
09:16AM 39.7500 -77.0667 229° Southwest 171 197 8,700 -420 Descending Potomac TRACON
09:17AM 39.7333 -77.1167 247° West 169 194 8,300 -360 Descending Potomac TRACON
09:18AM 39.7167 -77.1667 247° West 169 194 8,000 -480 Descending Potomac TRACON
09:19AM 39.6833 -77.2167 229° Southwest 170 196 7,400 -540 Descending Potomac TRACON
09:20AM 39.6500 -77.2833 237° Southwest 177 204 7,000 -240 Descending Potomac TRACON
09:21AM 39.6333 -77.3333 247° West 170 196 7,000 -180 Level Potomac TRACON
09:22AM 39.5833 -77.3333 180° South 170 196 6,700 -480 Descending Potomac TRACON
09:23AM 39.5333 -77.3333 180° South 190 219 6,100 -600 Descending Potomac TRACON
09:24AM 39.4833 -77.3333 180° South 198 228 5,500 -600 Descending Potomac TRACON
09:25AM 39.4167 -77.3333 180° South 197 227 4,900 -540 Descending Potomac TRACON
09:26AM 39.3667 -77.3500 194° South 188 216 4,500 -420 Descending Potomac TRACON
09:27AM 39.3167 -77.3500 180° South 179 206 4,100 -240 Descending Potomac TRACON
09:28AM 39.2833 -77.3500 180° South 165 190 4,000 -60 Descending Potomac TRACON
09:29AM 39.2333 -77.3500 180° South 157 181 4,000  Level Potomac TRACON
09:30AM 39.1833 -77.3500 180° South 161 185 4,000  Level Potomac TRACON
09:31AM 39.1500 -77.3500 180° South 160 184 4,000  Level Potomac TRACON
09:32AM 39.1000 -77.3500 180° South 156 180 4,000  Level Potomac TRACON
09:33AM 39.0667 -77.3500 180° South 155 178 4,000 -180 Level Potomac TRACON
09:34AM 39.0167 -77.3500 180° South 165 190 3,700 -480 Descending Potomac TRACON
09:35AM 38.9667 -77.3500 180° South 180 207 3,100 -420 Descending Potomac TRACON
09:36AM 38.9333 -77.3500 180° South 171 197 3,000 -60 Descending Potomac TRACON
09:37AM 38.8667 -77.3500 180° South 162 186 3,000  Level Potomac TRACON
09:38AM 38.8333 -77.3500 180° South 158 182 3,000 -240 Level Potomac TRACON
09:39AM 38.8000 -77.3833 218° Southwest 160 184 2,600 -360 Descending Potomac TRACON
09:40AM 38.7833 -77.4333 247° West 152 175 2,300 -180 Descending Potomac TRACON
09:41AM 38.8167 -77.4667 322° Northwest 141 162 2,300 -180 Level Potomac TRACON
09:42AM 38.8500 -77.4667 360° North 141 162 2,000 -300 Descending Potomac TRACON